sensor_id;sensor_type;location;lat;lon;timestamp;P1;durP1;ratioP1;P2;durP2;ratioP2
43801;SDS011;29429;51.074;13.764;2023-12-04T00:00:37;28.38;;;13.45;;
43801;SDS011;29429;51.074;13.764;2023-12-04T00:03:04;29.08;;;14.40;;
43801;SDS011;29429;51.074;13.764;2023-12-04T00:05:31;33.03;;;14.95;;
43801;SDS011;29429;51.074;13.764;2023-12-04T00:07:58;26.80;;;13.45;;
43801;SDS011;29429;51.074;13.764;2023-12-04T00:10:25;30.80;;;13.77;;
43801;SDS011;29429;51.074;13.764;2023-12-04T00:12:52;29.55;;;13.98;;
43801;SDS011;29429;51.074;13.764;2023-12-04T00:15:20;30.40;;;13.73;;
43801;SDS011;29429;51.074;13.764;2023-12-04T00:17:47;30.98;;;14.23;;
43801;SDS011;29429;51.074;13.764;2023-12-04T00:20:15;28.85;;;13.80;;
43801;SDS011;29429;51.074;13.764;2023-12-04T00:22:42;30.17;;;13.75;;
43801;SDS011;29429;51.074;13.764;2023-12-04T00:25:09;29.08;;;14.40;;
43801;SDS011;29429;51.074;13.764;2023-12-04T00:27:36;26.92;;;12.95;;
43801;SDS011;29429;51.074;13.764;2023-12-04T00:30:03;28.90;;;13.23;;
43801;SDS011;29429;51.074;13.764;2023-12-04T00:32:32;27.95;;;12.73;;
43801;SDS011;29429;51.074;13.764;2023-12-04T00:34:59;25.27;;;11.60;;
43801;SDS011;29429;51.074;13.764;2023-12-04T00:37:26;22.85;;;11.23;;
43801;SDS011;29429;51.074;13.764;2023-12-04T00:39:53;20.83;;;10.82;;
43801;SDS011;29429;51.074;13.764;2023-12-04T00:42:20;21.48;;;10.38;;
43801;SDS011;29429;51.074;13.764;2023-12-04T00:44:47;24.27;;;11.25;;
43801;SDS011;29429;51.074;13.764;2023-12-04T00:47:14;23.52;;;10.85;;
43801;SDS011;29429;51.074;13.764;2023-12-04T00:49:41;22.48;;;10.65;;
43801;SDS011;29429;51.074;13.764;2023-12-04T00:52:09;22.27;;;10.20;;
43801;SDS011;29429;51.074;13.764;2023-12-04T00:54:38;23.00;;;10.70;;
43801;SDS011;29429;51.074;13.764;2023-12-04T00:57:08;26.77;;;12.15;;
43801;SDS011;29429;51.074;13.764;2023-12-04T00:59:35;22.80;;;10.50;;
43801;SDS011;29429;51.074;13.764;2023-12-04T01:02:02;22.38;;;11.32;;
43801;SDS011;29429;51.074;13.764;2023-12-04T01:04:30;21.58;;;11.32;;
43801;SDS011;29429;51.074;13.764;2023-12-04T01:06:57;22.05;;;11.00;;
43801;SDS011;29429;51.074;13.764;2023-12-04T01:09:25;23.33;;;11.15;;
43801;SDS011;29429;51.074;13.764;2023-12-04T01:11:52;22.98;;;10.85;;
43801;SDS011;29429;51.074;13.764;2023-12-04T01:14:20;24.40;;;11.55;;
43801;SDS011;29429;51.074;13.764;2023-12-04T01:16:47;20.55;;;10.38;;
43801;SDS011;29429;51.074;13.764;2023-12-04T01:19:14;25.67;;;11.57;;
43801;SDS011;29429;51.074;13.764;2023-12-04T01:21:41;21.20;;;10.25;;
43801;SDS011;29429;51.074;13.764;2023-12-04T01:24:09;22.75;;;11.05;;
43801;SDS011;29429;51.074;13.764;2023-12-04T01:26:36;24.08;;;11.38;;
43801;SDS011;29429;51.074;13.764;2023-12-04T01:29:03;26.27;;;11.85;;
43801;SDS011;29429;51.074;13.764;2023-12-04T01:31:30;21.95;;;9.90;;
43801;SDS011;29429;51.074;13.764;2023-12-04T01:33:57;25.27;;;11.40;;
43801;SDS011;29429;51.074;13.764;2023-12-04T01:36:24;23.23;;;11.00;;
43801;SDS011;29429;51.074;13.764;2023-12-04T01:38:51;22.70;;;9.88;;
43801;SDS011;29429;51.074;13.764;2023-12-04T01:41:18;23.45;;;11.10;;
43801;SDS011;29429;51.074;13.764;2023-12-04T01:43:45;22.40;;;11.77;;
43801;SDS011;29429;51.074;13.764;2023-12-04T01:46:12;25.73;;;11.07;;
43801;SDS011;29429;51.074;13.764;2023-12-04T01:48:46;20.92;;;11.10;;
43801;SDS011;29429;51.074;13.764;2023-12-04T01:51:13;25.08;;;11.48;;
43801;SDS011;29429;51.074;13.764;2023-12-04T01:53:43;23.75;;;11.10;;
43801;SDS011;29429;51.074;13.764;2023-12-04T01:56:10;24.90;;;11.15;;
43801;SDS011;29429;51.074;13.764;2023-12-04T01:58:41;20.85;;;10.48;;
43801;SDS011;29429;51.074;13.764;2023-12-04T02:01:08;23.85;;;9.98;;
43801;SDS011;29429;51.074;13.764;2023-12-04T02:03:37;23.40;;;10.32;;
43801;SDS011;29429;51.074;13.764;2023-12-04T02:06:04;22.80;;;10.25;;
43801;SDS011;29429;51.074;13.764;2023-12-04T02:08:32;22.67;;;10.02;;
43801;SDS011;29429;51.074;13.764;2023-12-04T02:10:59;18.20;;;10.02;;
43801;SDS011;29429;51.074;13.764;2023-12-04T02:13:26;17.52;;;9.48;;
43801;SDS011;29429;51.074;13.764;2023-12-04T02:15:54;20.73;;;9.77;;
43801;SDS011;29429;51.074;13.764;2023-12-04T02:18:25;20.55;;;9.85;;
43801;SDS011;29429;51.074;13.764;2023-12-04T02:20:53;20.08;;;9.45;;
43801;SDS011;29429;51.074;13.764;2023-12-04T02:23:19;18.15;;;8.80;;
43801;SDS011;29429;51.074;13.764;2023-12-04T02:25:46;21.02;;;9.02;;
43801;SDS011;29429;51.074;13.764;2023-12-04T02:28:14;20.17;;;8.70;;
43801;SDS011;29429;51.074;13.764;2023-12-04T02:30:43;20.05;;;9.50;;
43801;SDS011;29429;51.074;13.764;2023-12-04T02:33:15;19.08;;;8.82;;
43801;SDS011;29429;51.074;13.764;2023-12-04T02:35:49;21.52;;;9.50;;
43801;SDS011;29429;51.074;13.764;2023-12-04T02:38:18;17.55;;;8.60;;
43801;SDS011;29429;51.074;13.764;2023-12-04T02:40:47;21.40;;;10.77;;
43801;SDS011;29429;51.074;13.764;2023-12-04T02:43:14;22.70;;;9.43;;
43801;SDS011;29429;51.074;13.764;2023-12-04T02:45:41;23.55;;;10.50;;
43801;SDS011;29429;51.074;13.764;2023-12-04T02:48:08;19.38;;;9.85;;
43801;SDS011;29429;51.074;13.764;2023-12-04T02:50:36;21.35;;;9.85;;
43801;SDS011;29429;51.074;13.764;2023-12-04T02:53:03;20.10;;;9.40;;
43801;SDS011;29429;51.074;13.764;2023-12-04T02:55:30;21.83;;;9.63;;
43801;SDS011;29429;51.074;13.764;2023-12-04T02:57:57;20.80;;;9.43;;
43801;SDS011;29429;51.074;13.764;2023-12-04T03:00:24;21.38;;;9.48;;
43801;SDS011;29429;51.074;13.764;2023-12-04T03:02:51;20.20;;;9.32;;
43801;SDS011;29429;51.074;13.764;2023-12-04T03:05:19;20.30;;;9.30;;
43801;SDS011;29429;51.074;13.764;2023-12-04T03:07:46;19.10;;;9.32;;
43801;SDS011;29429;51.074;13.764;2023-12-04T03:10:12;24.40;;;8.95;;
43801;SDS011;29429;51.074;13.764;2023-12-04T03:12:39;18.50;;;9.32;;
43801;SDS011;29429;51.074;13.764;2023-12-04T03:15:07;19.88;;;8.82;;
43801;SDS011;29429;51.074;13.764;2023-12-04T03:17:34;20.33;;;9.60;;
43801;SDS011;29429;51.074;13.764;2023-12-04T03:20:01;19.92;;;9.25;;
43801;SDS011;29429;51.074;13.764;2023-12-04T03:22:28;20.48;;;9.65;;
43801;SDS011;29429;51.074;13.764;2023-12-04T03:24:55;21.08;;;9.90;;
43801;SDS011;29429;51.074;13.764;2023-12-04T03:27:22;20.05;;;10.10;;
43801;SDS011;29429;51.074;13.764;2023-12-04T03:29:49;22.27;;;10.02;;
43801;SDS011;29429;51.074;13.764;2023-12-04T03:32:16;23.35;;;11.15;;
43801;SDS011;29429;51.074;13.764;2023-12-04T03:34:43;23.88;;;11.45;;
43801;SDS011;29429;51.074;13.764;2023-12-04T03:37:10;26.60;;;12.05;;
43801;SDS011;29429;51.074;13.764;2023-12-04T03:39:37;24.35;;;12.00;;
43801;SDS011;29429;51.074;13.764;2023-12-04T03:42:04;25.52;;;12.65;;
43801;SDS011;29429;51.074;13.764;2023-12-04T03:44:31;25.38;;;11.45;;
43801;SDS011;29429;51.074;13.764;2023-12-04T03:46:58;25.38;;;11.90;;
43801;SDS011;29429;51.074;13.764;2023-12-04T03:49:25;23.92;;;10.63;;
43801;SDS011;29429;51.074;13.764;2023-12-04T03:51:52;24.08;;;10.77;;
43801;SDS011;29429;51.074;13.764;2023-12-04T03:54:19;21.63;;;10.73;;
43801;SDS011;29429;51.074;13.764;2023-12-04T03:56:47;21.15;;;10.52;;
43801;SDS011;29429;51.074;13.764;2023-12-04T03:59:13;22.67;;;10.65;;
43801;SDS011;29429;51.074;13.764;2023-12-04T04:01:40;19.92;;;9.60;;
43801;SDS011;29429;51.074;13.764;2023-12-04T04:04:07;22.75;;;11.05;;
43801;SDS011;29429;51.074;13.764;2023-12-04T04:06:34;25.02;;;11.57;;
43801;SDS011;29429;51.074;13.764;2023-12-04T04:09:05;22.88;;;11.15;;
43801;SDS011;29429;51.074;13.764;2023-12-04T04:11:32;25.17;;;11.02;;
43801;SDS011;29429;51.074;13.764;2023-12-04T04:13:59;25.48;;;10.85;;
43801;SDS011;29429;51.074;13.764;2023-12-04T04:16:26;26.38;;;12.15;;
43801;SDS011;29429;51.074;13.764;2023-12-04T04:18:53;24.52;;;11.70;;
43801;SDS011;29429;51.074;13.764;2023-12-04T04:21:20;24.83;;;11.30;;
43801;SDS011;29429;51.074;13.764;2023-12-04T04:23:47;20.85;;;10.48;;
43801;SDS011;29429;51.074;13.764;2023-12-04T04:26:13;24.13;;;11.32;;
43801;SDS011;29429;51.074;13.764;2023-12-04T04:28:40;27.25;;;13.48;;
43801;SDS011;29429;51.074;13.764;2023-12-04T04:31:07;25.25;;;11.68;;
43801;SDS011;29429;51.074;13.764;2023-12-04T04:33:34;25.38;;;11.88;;
43801;SDS011;29429;51.074;13.764;2023-12-04T04:36:01;23.15;;;11.23;;
43801;SDS011;29429;51.074;13.764;2023-12-04T04:38:29;25.52;;;12.15;;
43801;SDS011;29429;51.074;13.764;2023-12-04T04:40:56;26.20;;;11.48;;
43801;SDS011;29429;51.074;13.764;2023-12-04T04:43:23;26.90;;;12.80;;
43801;SDS011;29429;51.074;13.764;2023-12-04T04:45:50;25.60;;;12.23;;
43801;SDS011;29429;51.074;13.764;2023-12-04T04:48:17;24.92;;;11.80;;
43801;SDS011;29429;51.074;13.764;2023-12-04T04:50:46;24.58;;;11.45;;
43801;SDS011;29429;51.074;13.764;2023-12-04T04:53:12;26.58;;;11.63;;
43801;SDS011;29429;51.074;13.764;2023-12-04T04:58:38;23.48;;;11.48;;
43801;SDS011;29429;51.074;13.764;2023-12-04T05:01:06;26.13;;;12.30;;
43801;SDS011;29429;51.074;13.764;2023-12-04T05:03:34;25.30;;;10.98;;
43801;SDS011;29429;51.074;13.764;2023-12-04T05:06:01;26.52;;;11.73;;
43801;SDS011;29429;51.074;13.764;2023-12-04T05:08:28;30.40;;;12.50;;
43801;SDS011;29429;51.074;13.764;2023-12-04T05:10:55;30.02;;;13.05;;
43801;SDS011;29429;51.074;13.764;2023-12-04T05:13:22;27.00;;;11.75;;
43801;SDS011;29429;51.074;13.764;2023-12-04T05:15:49;24.70;;;11.23;;
43801;SDS011;29429;51.074;13.764;2023-12-04T05:18:19;24.23;;;12.30;;
43801;SDS011;29429;51.074;13.764;2023-12-04T05:20:46;29.85;;;11.82;;
43801;SDS011;29429;51.074;13.764;2023-12-04T05:23:13;30.85;;;13.45;;
43801;SDS011;29429;51.074;13.764;2023-12-04T05:25:40;24.73;;;10.95;;
43801;SDS011;29429;51.074;13.764;2023-12-04T05:28:15;25.05;;;10.85;;
43801;SDS011;29429;51.074;13.764;2023-12-04T05:30:42;28.13;;;12.55;;
43801;SDS011;29429;51.074;13.764;2023-12-04T05:33:09;27.98;;;11.55;;
43801;SDS011;29429;51.074;13.764;2023-12-04T05:35:36;25.38;;;12.43;;
43801;SDS011;29429;51.074;13.764;2023-12-04T05:38:04;23.33;;;11.50;;
43801;SDS011;29429;51.074;13.764;2023-12-04T05:40:31;30.13;;;13.63;;
43801;SDS011;29429;51.074;13.764;2023-12-04T05:42:57;25.58;;;12.25;;
43801;SDS011;29429;51.074;13.764;2023-12-04T05:45:25;23.42;;;11.70;;
43801;SDS011;29429;51.074;13.764;2023-12-04T05:47:52;23.85;;;11.70;;
43801;SDS011;29429;51.074;13.764;2023-12-04T05:50:19;24.08;;;10.57;;
43801;SDS011;29429;51.074;13.764;2023-12-04T05:52:46;25.05;;;11.93;;
43801;SDS011;29429;51.074;13.764;2023-12-04T05:55:13;25.45;;;12.02;;
43801;SDS011;29429;51.074;13.764;2023-12-04T05:57:40;24.13;;;11.48;;
43801;SDS011;29429;51.074;13.764;2023-12-04T06:00:07;22.88;;;10.68;;
43801;SDS011;29429;51.074;13.764;2023-12-04T06:02:39;21.17;;;10.35;;
43801;SDS011;29429;51.074;13.764;2023-12-04T06:05:08;24.15;;;11.30;;
43801;SDS011;29429;51.074;13.764;2023-12-04T06:07:36;23.15;;;11.23;;
43801;SDS011;29429;51.074;13.764;2023-12-04T06:10:04;22.58;;;10.93;;
43801;SDS011;29429;51.074;13.764;2023-12-04T06:12:32;23.70;;;10.25;;
43801;SDS011;29429;51.074;13.764;2023-12-04T06:15:00;23.15;;;10.15;;
43801;SDS011;29429;51.074;13.764;2023-12-04T06:17:28;23.20;;;11.10;;
43801;SDS011;29429;51.074;13.764;2023-12-04T06:19:55;21.38;;;10.85;;
43801;SDS011;29429;51.074;13.764;2023-12-04T06:22:22;20.98;;;10.43;;
43801;SDS011;29429;51.074;13.764;2023-12-04T06:24:49;21.45;;;9.88;;
43801;SDS011;29429;51.074;13.764;2023-12-04T06:27:17;19.75;;;10.27;;
43801;SDS011;29429;51.074;13.764;2023-12-04T06:29:48;18.35;;;9.70;;
43801;SDS011;29429;51.074;13.764;2023-12-04T06:32:18;20.17;;;10.18;;
43801;SDS011;29429;51.074;13.764;2023-12-04T06:34:46;20.52;;;10.48;;
43801;SDS011;29429;51.074;13.764;2023-12-04T06:37:14;20.13;;;9.68;;
43801;SDS011;29429;51.074;13.764;2023-12-04T06:39:42;21.85;;;10.15;;
43801;SDS011;29429;51.074;13.764;2023-12-04T06:42:14;22.77;;;11.55;;
43801;SDS011;29429;51.074;13.764;2023-12-04T06:44:42;20.15;;;9.98;;
43801;SDS011;29429;51.074;13.764;2023-12-04T06:47:09;22.73;;;11.20;;
43801;SDS011;29429;51.074;13.764;2023-12-04T06:49:38;24.25;;;10.35;;
43801;SDS011;29429;51.074;13.764;2023-12-04T06:52:05;19.77;;;9.98;;
43801;SDS011;29429;51.074;13.764;2023-12-04T06:54:32;16.63;;;8.65;;
43801;SDS011;29429;51.074;13.764;2023-12-04T06:56:59;19.88;;;10.55;;
43801;SDS011;29429;51.074;13.764;2023-12-04T06:59:26;19.35;;;9.32;;
43801;SDS011;29429;51.074;13.764;2023-12-04T07:01:54;19.08;;;10.10;;
43801;SDS011;29429;51.074;13.764;2023-12-04T07:04:20;18.88;;;10.05;;
43801;SDS011;29429;51.074;13.764;2023-12-04T07:06:48;21.08;;;9.95;;
43801;SDS011;29429;51.074;13.764;2023-12-04T07:09:16;16.88;;;8.98;;
43801;SDS011;29429;51.074;13.764;2023-12-04T07:11:43;20.70;;;9.98;;
43801;SDS011;29429;51.074;13.764;2023-12-04T07:14:10;19.58;;;9.20;;
43801;SDS011;29429;51.074;13.764;2023-12-04T07:16:39;18.17;;;9.52;;
43801;SDS011;29429;51.074;13.764;2023-12-04T07:19:08;18.55;;;8.73;;
43801;SDS011;29429;51.074;13.764;2023-12-04T07:21:37;18.08;;;9.05;;
43801;SDS011;29429;51.074;13.764;2023-12-04T07:24:05;16.73;;;8.95;;
43801;SDS011;29429;51.074;13.764;2023-12-04T07:26:33;19.52;;;9.63;;
43801;SDS011;29429;51.074;13.764;2023-12-04T07:29:01;20.88;;;9.40;;
43801;SDS011;29429;51.074;13.764;2023-12-04T07:31:29;21.15;;;9.45;;
43801;SDS011;29429;51.074;13.764;2023-12-04T07:33:57;17.52;;;9.45;;
43801;SDS011;29429;51.074;13.764;2023-12-04T07:36:26;18.98;;;9.38;;
43801;SDS011;29429;51.074;13.764;2023-12-04T07:38:54;17.67;;;9.40;;
43801;SDS011;29429;51.074;13.764;2023-12-04T07:41:21;19.02;;;9.95;;
43801;SDS011;29429;51.074;13.764;2023-12-04T07:43:48;21.35;;;10.05;;
43801;SDS011;29429;51.074;13.764;2023-12-04T07:46:16;21.85;;;10.85;;
43801;SDS011;29429;51.074;13.764;2023-12-04T07:48:43;18.95;;;9.85;;
43801;SDS011;29429;51.074;13.764;2023-12-04T07:51:10;20.27;;;10.40;;
43801;SDS011;29429;51.074;13.764;2023-12-04T07:53:37;18.00;;;9.82;;
43801;SDS011;29429;51.074;13.764;2023-12-04T07:56:04;18.63;;;9.82;;
43801;SDS011;29429;51.074;13.764;2023-12-04T07:58:32;17.27;;;8.77;;
43801;SDS011;29429;51.074;13.764;2023-12-04T08:00:59;20.33;;;9.77;;
43801;SDS011;29429;51.074;13.764;2023-12-04T08:03:26;18.90;;;10.27;;
43801;SDS011;29429;51.074;13.764;2023-12-04T08:05:53;19.00;;;10.50;;
43801;SDS011;29429;51.074;13.764;2023-12-04T08:08:20;17.40;;;9.40;;
43801;SDS011;29429;51.074;13.764;2023-12-04T08:10:47;19.58;;;9.55;;
43801;SDS011;29429;51.074;13.764;2023-12-04T08:13:14;20.95;;;9.70;;
43801;SDS011;29429;51.074;13.764;2023-12-04T08:15:43;17.88;;;9.40;;
43801;SDS011;29429;51.074;13.764;2023-12-04T08:18:11;15.50;;;8.30;;
43801;SDS011;29429;51.074;13.764;2023-12-04T08:20:38;15.77;;;8.93;;
43801;SDS011;29429;51.074;13.764;2023-12-04T08:23:07;16.77;;;9.48;;
43801;SDS011;29429;51.074;13.764;2023-12-04T08:25:34;16.83;;;9.15;;
43801;SDS011;29429;51.074;13.764;2023-12-04T08:28:05;19.60;;;9.73;;
43801;SDS011;29429;51.074;13.764;2023-12-04T08:30:32;18.75;;;9.32;;
43801;SDS011;29429;51.074;13.764;2023-12-04T08:32:59;20.63;;;9.75;;
43801;SDS011;29429;51.074;13.764;2023-12-04T08:35:26;19.27;;;9.65;;
43801;SDS011;29429;51.074;13.764;2023-12-04T08:37:53;18.95;;;9.68;;
43801;SDS011;29429;51.074;13.764;2023-12-04T08:40:20;18.50;;;9.38;;
43801;SDS011;29429;51.074;13.764;2023-12-04T08:42:48;15.52;;;8.75;;
43801;SDS011;29429;51.074;13.764;2023-12-04T08:45:15;17.92;;;9.55;;
43801;SDS011;29429;51.074;13.764;2023-12-04T08:47:45;16.67;;;9.05;;
43801;SDS011;29429;51.074;13.764;2023-12-04T08:50:12;17.58;;;9.63;;
43801;SDS011;29429;51.074;13.764;2023-12-04T08:52:39;16.52;;;9.10;;
43801;SDS011;29429;51.074;13.764;2023-12-04T08:55:08;19.27;;;9.70;;
43801;SDS011;29429;51.074;13.764;2023-12-04T08:57:36;17.00;;;9.48;;
43801;SDS011;29429;51.074;13.764;2023-12-04T09:00:03;17.20;;;9.80;;
43801;SDS011;29429;51.074;13.764;2023-12-04T09:02:31;14.40;;;8.27;;
43801;SDS011;29429;51.074;13.764;2023-12-04T09:04:58;17.77;;;9.60;;
43801;SDS011;29429;51.074;13.764;2023-12-04T09:07:26;18.33;;;9.77;;
43801;SDS011;29429;51.074;13.764;2023-12-04T09:10:13;17.65;;;9.30;;
43801;SDS011;29429;51.074;13.764;2023-12-04T09:13:00;17.52;;;9.73;;
43801;SDS011;29429;51.074;13.764;2023-12-04T09:15:27;15.75;;;8.88;;
43801;SDS011;29429;51.074;13.764;2023-12-04T09:17:54;15.68;;;9.23;;
43801;SDS011;29429;51.074;13.764;2023-12-04T09:20:21;16.65;;;9.35;;
43801;SDS011;29429;51.074;13.764;2023-12-04T09:22:49;18.48;;;9.43;;
43801;SDS011;29429;51.074;13.764;2023-12-04T09:25:22;16.33;;;9.80;;
43801;SDS011;29429;51.074;13.764;2023-12-04T09:27:49;17.05;;;9.30;;
43801;SDS011;29429;51.074;13.764;2023-12-04T09:30:16;18.25;;;9.15;;
43801;SDS011;29429;51.074;13.764;2023-12-04T09:32:44;15.15;;;8.98;;
43801;SDS011;29429;51.074;13.764;2023-12-04T09:35:11;17.35;;;9.02;;
43801;SDS011;29429;51.074;13.764;2023-12-04T09:37:38;15.55;;;9.23;;
43801;SDS011;29429;51.074;13.764;2023-12-04T09:40:05;14.90;;;8.70;;
43801;SDS011;29429;51.074;13.764;2023-12-04T09:42:34;19.80;;;9.07;;
43801;SDS011;29429;51.074;13.764;2023-12-04T09:45:02;16.30;;;9.35;;
43801;SDS011;29429;51.074;13.764;2023-12-04T09:47:31;14.88;;;8.65;;
43801;SDS011;29429;51.074;13.764;2023-12-04T09:50:00;19.77;;;10.13;;
43801;SDS011;29429;51.074;13.764;2023-12-04T09:52:28;15.00;;;9.13;;
43801;SDS011;29429;51.074;13.764;2023-12-04T09:54:57;14.35;;;8.95;;
43801;SDS011;29429;51.074;13.764;2023-12-04T09:57:24;14.45;;;8.20;;
43801;SDS011;29429;51.074;13.764;2023-12-04T09:59:52;16.63;;;8.65;;
43801;SDS011;29429;51.074;13.764;2023-12-04T10:02:19;16.80;;;9.30;;
43801;SDS011;29429;51.074;13.764;2023-12-04T10:04:48;15.27;;;8.20;;
43801;SDS011;29429;51.074;13.764;2023-12-04T10:07:15;15.30;;;8.77;;
43801;SDS011;29429;51.074;13.764;2023-12-04T10:09:42;14.07;;;8.13;;
43801;SDS011;29429;51.074;13.764;2023-12-04T10:12:09;13.50;;;8.30;;
43801;SDS011;29429;51.074;13.764;2023-12-04T10:14:37;12.95;;;7.88;;
43801;SDS011;29429;51.074;13.764;2023-12-04T10:17:16;15.07;;;9.70;;
43801;SDS011;29429;51.074;13.764;2023-12-04T10:19:46;16.27;;;8.98;;
43801;SDS011;29429;51.074;13.764;2023-12-04T10:22:13;14.38;;;8.35;;
43801;SDS011;29429;51.074;13.764;2023-12-04T10:24:40;17.55;;;9.45;;
43801;SDS011;29429;51.074;13.764;2023-12-04T10:27:08;17.15;;;8.82;;
43801;SDS011;29429;51.074;13.764;2023-12-04T10:29:41;16.88;;;8.90;;
43801;SDS011;29429;51.074;13.764;2023-12-04T10:32:18;15.55;;;9.80;;
43801;SDS011;29429;51.074;13.764;2023-12-04T10:34:49;15.85;;;8.23;;
43801;SDS011;29429;51.074;13.764;2023-12-04T10:37:16;16.20;;;9.20;;
43801;SDS011;29429;51.074;13.764;2023-12-04T10:39:46;16.65;;;9.50;;
43801;SDS011;29429;51.074;13.764;2023-12-04T10:44:57;15.02;;;9.07;;
43801;SDS011;29429;51.074;13.764;2023-12-04T10:47:26;14.90;;;8.73;;
43801;SDS011;29429;51.074;13.764;2023-12-04T10:49:55;16.58;;;10.07;;
43801;SDS011;29429;51.074;13.764;2023-12-04T10:52:23;16.00;;;8.80;;
43801;SDS011;29429;51.074;13.764;2023-12-04T10:54:50;16.38;;;9.25;;
43801;SDS011;29429;51.074;13.764;2023-12-04T10:57:21;17.13;;;9.07;;
43801;SDS011;29429;51.074;13.764;2023-12-04T10:59:56;18.52;;;9.27;;
43801;SDS011;29429;51.074;13.764;2023-12-04T11:02:34;17.67;;;8.30;;
43801;SDS011;29429;51.074;13.764;2023-12-04T11:05:14;16.58;;;9.68;;
43801;SDS011;29429;51.074;13.764;2023-12-04T11:07:48;17.70;;;9.40;;
43801;SDS011;29429;51.074;13.764;2023-12-04T11:11:18;18.08;;;8.43;;
43801;SDS011;29429;51.074;13.764;2023-12-04T11:13:41;15.68;;;8.95;;
43801;SDS011;29429;51.074;13.764;2023-12-04T11:18:51;14.30;;;9.25;;
43801;SDS011;29429;51.074;13.764;2023-12-04T11:21:48;15.25;;;8.68;;
43801;SDS011;29429;51.074;13.764;2023-12-04T11:24:17;14.93;;;8.60;;
43801;SDS011;29429;51.074;13.764;2023-12-04T11:26:44;14.63;;;9.00;;
43801;SDS011;29429;51.074;13.764;2023-12-04T11:29:12;15.02;;;8.65;;
43801;SDS011;29429;51.074;13.764;2023-12-04T11:31:40;15.55;;;8.77;;
43801;SDS011;29429;51.074;13.764;2023-12-04T11:34:08;13.63;;;8.13;;
43801;SDS011;29429;51.074;13.764;2023-12-04T11:36:38;14.65;;;8.73;;
43801;SDS011;29429;51.074;13.764;2023-12-04T11:39:09;15.23;;;8.93;;
43801;SDS011;29429;51.074;13.764;2023-12-04T11:41:37;15.75;;;8.63;;
43801;SDS011;29429;51.074;13.764;2023-12-04T11:44:11;13.70;;;8.27;;
43801;SDS011;29429;51.074;13.764;2023-12-04T11:46:55;15.15;;;8.85;;
43801;SDS011;29429;51.074;13.764;2023-12-04T11:49:32;18.27;;;9.77;;
43801;SDS011;29429;51.074;13.764;2023-12-04T11:52:03;13.98;;;8.45;;
43801;SDS011;29429;51.074;13.764;2023-12-04T11:54:55;16.70;;;8.95;;
43801;SDS011;29429;51.074;13.764;2023-12-04T11:57:39;15.23;;;8.35;;
43801;SDS011;29429;51.074;13.764;2023-12-04T12:00:11;14.50;;;7.55;;
43801;SDS011;29429;51.074;13.764;2023-12-04T12:02:41;11.80;;;7.00;;
43801;SDS011;29429;51.074;13.764;2023-12-04T12:05:35;13.55;;;7.90;;
43801;SDS011;29429;51.074;13.764;2023-12-04T12:08:05;14.68;;;7.32;;
43801;SDS011;29429;51.074;13.764;2023-12-04T12:10:34;13.98;;;8.20;;
43801;SDS011;29429;51.074;13.764;2023-12-04T12:13:01;14.60;;;7.80;;
43801;SDS011;29429;51.074;13.764;2023-12-04T12:15:29;15.90;;;7.72;;
43801;SDS011;29429;51.074;13.764;2023-12-04T12:17:59;14.93;;;7.70;;
43801;SDS011;29429;51.074;13.764;2023-12-04T12:20:26;13.52;;;7.25;;
43801;SDS011;29429;51.074;13.764;2023-12-04T12:22:53;14.45;;;8.32;;
43801;SDS011;29429;51.074;13.764;2023-12-04T12:25:20;14.20;;;7.80;;
43801;SDS011;29429;51.074;13.764;2023-12-04T12:27:49;15.57;;;8.20;;
43801;SDS011;29429;51.074;13.764;2023-12-04T12:30:17;16.75;;;8.68;;
43801;SDS011;29429;51.074;13.764;2023-12-04T12:32:44;12.45;;;7.47;;
43801;SDS011;29429;51.074;13.764;2023-12-04T12:35:11;17.15;;;8.73;;
43801;SDS011;29429;51.074;13.764;2023-12-04T12:37:39;12.65;;;7.85;;
43801;SDS011;29429;51.074;13.764;2023-12-04T12:40:06;13.80;;;7.65;;
43801;SDS011;29429;51.074;13.764;2023-12-04T12:42:37;13.93;;;7.82;;
43801;SDS011;29429;51.074;13.764;2023-12-04T12:45:11;15.52;;;8.43;;
43801;SDS011;29429;51.074;13.764;2023-12-04T12:47:42;14.75;;;8.02;;
43801;SDS011;29429;51.074;13.764;2023-12-04T12:50:10;13.60;;;7.32;;
43801;SDS011;29429;51.074;13.764;2023-12-04T12:52:40;14.68;;;8.68;;
43801;SDS011;29429;51.074;13.764;2023-12-04T12:55:09;13.55;;;7.43;;
43801;SDS011;29429;51.074;13.764;2023-12-04T12:57:36;14.23;;;7.53;;
43801;SDS011;29429;51.074;13.764;2023-12-04T13:00:04;13.63;;;7.55;;
43801;SDS011;29429;51.074;13.764;2023-12-04T13:02:36;14.77;;;8.40;;
43801;SDS011;29429;51.074;13.764;2023-12-04T13:05:04;16.65;;;8.82;;
43801;SDS011;29429;51.074;13.764;2023-12-04T13:07:33;14.80;;;8.45;;
43801;SDS011;29429;51.074;13.764;2023-12-04T13:10:00;15.48;;;8.50;;
43801;SDS011;29429;51.074;13.764;2023-12-04T13:12:27;15.85;;;8.43;;
43801;SDS011;29429;51.074;13.764;2023-12-04T13:14:54;15.68;;;8.30;;
43801;SDS011;29429;51.074;13.764;2023-12-04T13:17:21;16.92;;;9.32;;
43801;SDS011;29429;51.074;13.764;2023-12-04T13:19:48;16.98;;;9.27;;
43801;SDS011;29429;51.074;13.764;2023-12-04T13:22:15;17.70;;;9.10;;
43801;SDS011;29429;51.074;13.764;2023-12-04T13:24:42;17.52;;;8.88;;
43801;SDS011;29429;51.074;13.764;2023-12-04T13:27:09;15.57;;;8.85;;
43801;SDS011;29429;51.074;13.764;2023-12-04T13:29:37;16.40;;;8.90;;
43801;SDS011;29429;51.074;13.764;2023-12-04T13:32:04;18.25;;;8.57;;
43801;SDS011;29429;51.074;13.764;2023-12-04T13:34:31;14.68;;;8.48;;
43801;SDS011;29429;51.074;13.764;2023-12-04T13:36:58;15.88;;;9.13;;
43801;SDS011;29429;51.074;13.764;2023-12-04T13:39:25;19.75;;;10.20;;
43801;SDS011;29429;51.074;13.764;2023-12-04T13:42:11;16.55;;;8.20;;
43801;SDS011;29429;51.074;13.764;2023-12-04T13:44:57;17.02;;;9.02;;
43801;SDS011;29429;51.074;13.764;2023-12-04T13:47:24;16.48;;;8.85;;
43801;SDS011;29429;51.074;13.764;2023-12-04T13:49:51;15.73;;;8.32;;
43801;SDS011;29429;51.074;13.764;2023-12-04T13:52:17;16.80;;;8.20;;
43801;SDS011;29429;51.074;13.764;2023-12-04T13:54:49;16.83;;;9.45;;
43801;SDS011;29429;51.074;13.764;2023-12-04T13:57:19;15.05;;;8.75;;
43801;SDS011;29429;51.074;13.764;2023-12-04T13:59:59;16.50;;;9.30;;
43801;SDS011;29429;51.074;13.764;2023-12-04T14:02:29;16.35;;;9.48;;
43801;SDS011;29429;51.074;13.764;2023-12-04T14:04:56;17.83;;;9.20;;
43801;SDS011;29429;51.074;13.764;2023-12-04T14:07:24;18.75;;;10.45;;
43801;SDS011;29429;51.074;13.764;2023-12-04T14:09:52;16.13;;;9.18;;
43801;SDS011;29429;51.074;13.764;2023-12-04T14:12:19;14.48;;;8.77;;
43801;SDS011;29429;51.074;13.764;2023-12-04T14:14:46;15.98;;;9.23;;
43801;SDS011;29429;51.074;13.764;2023-12-04T14:17:14;18.90;;;10.55;;
43801;SDS011;29429;51.074;13.764;2023-12-04T14:19:42;19.10;;;10.13;;
43801;SDS011;29429;51.074;13.764;2023-12-04T14:22:09;20.08;;;9.93;;
43801;SDS011;29429;51.074;13.764;2023-12-04T14:24:36;22.08;;;9.82;;
43801;SDS011;29429;51.074;13.764;2023-12-04T14:27:04;17.45;;;9.68;;
43801;SDS011;29429;51.074;13.764;2023-12-04T14:29:32;20.17;;;10.40;;
43801;SDS011;29429;51.074;13.764;2023-12-04T14:32:00;20.20;;;10.25;;